Time;durP1;ratioP1;P1;durP2;ratioP2;P2;SDS_P1;SDS_P2;PMS_P1;PMS_P2;Temp;Humidity;BMP_temperature;BMP_pressure;BME280_temperature;BME280_humidity;BME280_pressure;Samples;Min_cycle;Max_cycle;Signal;HPM_P1;HPM_P2
2020/12/20 00:02:12;;;;;;;43.00;28.58;;;5.90;94.90;;;;;;5032673;28;20029;-73
2020/12/20 00:04:38;;;;;;;47.95;30.08;;;6.00;95.00;;;;;;5030587;28;20057;-73
2020/12/20 00:07:07;;;;;;;47.65;29.35;;;5.90;95.00;;;;;;5032792;28;20053;-73
2020/12/20 00:09:33;;;;;;;49.60;27.17;;;6.00;94.90;;;;;;5032882;28;20029;-71
2020/12/20 00:11:58;;;;;;;38.80;22.58;;;5.90;94.90;;;;;;5032129;28;20452;-74
2020/12/20 00:14:27;;;;;;;32.35;18.90;;;5.90;94.90;;;;;;5029728;28;20525;-74
2020/12/20 00:16:54;;;;;;;29.35;17.20;;;5.90;94.90;;;;;;5032102;28;20024;-75
2020/12/20 00:19:20;;;;;;;27.40;15.93;;;5.90;94.90;;;;;;5033227;28;20082;-75
2020/12/20 00:21:45;;;;;;;23.65;13.88;;;6.00;94.90;;;;;;5048351;28;20116;-73
2020/12/20 00:24:11;;;;;;;19.38;12.70;;;5.90;94.90;;;;;;5032631;28;20032;-74
2020/12/20 00:26:41;;;;;;;19.08;11.02;;;5.90;94.80;;;;;;5033131;28;20036;-74
2020/12/20 00:29:07;;;;;;;19.55;11.98;;;5.90;94.80;;;;;;5033463;28;20026;-74
2020/12/20 00:31:32;;;;;;;19.17;11.75;;;5.80;94.80;;;;;;5033334;28;20029;-74
2020/12/20 00:33:57;;;;;;;18.65;11.52;;;5.80;94.80;;;;;;5033326;28;20481;-74
2020/12/20 00:36:23;;;;;;;19.05;11.93;;;5.80;94.80;;;;;;5050025;28;20051;-74
2020/12/20 00:38:48;;;;;;;19.90;12.40;;;5.80;94.70;;;;;;5017796;28;20032;-74
2020/12/20 00:41:14;;;;;;;19.38;12.30;;;5.80;94.80;;;;;;5030755;28;20014;-74
2020/12/20 00:43:39;;;;;;;20.55;11.85;;;5.80;94.70;;;;;;5014422;28;20036;-72
2020/12/20 00:46:05;;;;;;;19.50;12.35;;;5.70;94.60;;;;;;5029006;28;20112;-72
2020/12/20 00:48:30;;;;;;;18.10;12.00;;;5.70;94.70;;;;;;5013809;28;20041;-72
2020/12/20 00:50:56;;;;;;;18.58;11.93;;;5.70;94.60;;;;;;5031746;28;20036;-72
2020/12/20 00:53:21;;;;;;;17.15;11.43;;;5.70;94.60;;;;;;5013904;28;20121;-71
2020/12/20 00:55:50;;;;;;;20.67;12.00;;;5.60;94.60;;;;;;5031022;28;20029;-74
2020/12/20 00:58:15;;;;;;;18.15;11.50;;;5.60;94.60;;;;;;5033742;28;20096;-71
2020/12/20 01:00:41;;;;;;;20.27;13.30;;;5.60;94.60;;;;;;5030077;28;20024;-71
2020/12/20 01:03:06;;;;;;;19.77;11.65;;;5.60;94.50;;;;;;5020887;28;20034;-70
2020/12/20 01:05:32;;;;;;;18.33;12.18;;;5.60;94.50;;;;;;5029641;28;20029;-70
2020/12/20 01:07:57;;;;;;;22.75;12.15;;;5.60;94.40;;;;;;5031289;28;20113;-70
2020/12/20 01:10:22;;;;;;;19.27;11.90;;;5.60;94.50;;;;;;5023462;28;20029;-70
2020/12/20 01:12:48;;;;;;;20.67;12.55;;;5.60;94.40;;;;;;5015929;28;20316;-70
2020/12/20 01:15:13;;;;;;;19.60;12.35;;;5.50;94.50;;;;;;5012451;28;20021;-70
2020/12/20 01:17:39;;;;;;;17.92;12.30;;;5.50;94.50;;;;;;5031574;28;20049;-70
2020/12/20 01:20:05;;;;;;;19.63;12.18;;;5.50;94.50;;;;;;5027203;28;20018;-70
2020/12/20 01:22:31;;;;;;;20.27;12.43;;;5.50;94.50;;;;;;5011685;28;20026;-70
2020/12/20 01:24:56;;;;;;;19.42;11.60;;;5.50;94.50;;;;;;5027345;28;20385;-70
2020/12/20 01:27:22;;;;;;;18.25;11.65;;;5.50;94.50;;;;;;5030725;28;20511;-70
2020/12/20 01:29:47;;;;;;;20.55;12.50;;;5.40;94.50;;;;;;5028595;28;20030;-70
2020/12/20 01:32:16;;;;;;;21.02;12.35;;;5.40;94.50;;;;;;5031211;28;20065;-70
2020/12/20 01:34:42;;;;;;;16.83;11.43;;;5.40;94.50;;;;;;5003352;28;20188;-70
2020/12/20 01:37:08;;;;;;;18.85;12.50;;;5.40;94.50;;;;;;5029381;28;20517;-70
2020/12/20 01:39:34;;;;;;;19.33;12.70;;;5.40;94.60;;;;;;5028486;28;20072;-70
2020/12/20 01:41:59;;;;;;;20.02;12.70;;;5.40;94.50;;;;;;5030925;28;20025;-70
2020/12/20 01:44:24;;;;;;;20.95;12.68;;;5.40;94.50;;;;;;5027570;28;20033;-70
2020/12/20 01:46:51;;;;;;;18.50;11.48;;;5.40;94.60;;;;;;5032995;28;20060;-70
2020/12/20 01:49:17;;;;;;;18.55;11.73;;;5.30;94.60;;;;;;5032034;28;20036;-70
2020/12/20 01:51:42;;;;;;;20.75;12.18;;;5.30;94.60;;;;;;5034313;28;20045;-70
2020/12/20 01:54:09;;;;;;;19.25;11.98;;;5.30;94.60;;;;;;5016954;28;20096;-70
2020/12/20 01:56:35;;;;;;;21.15;12.85;;;5.30;94.60;;;;;;5014308;28;20089;-70
2020/12/20 01:59:01;;;;;;;20.27;12.23;;;5.30;94.60;;;;;;5013968;28;20030;-70
2020/12/20 02:01:26;;;;;;;18.27;12.30;;;5.30;94.60;;;;;;5014811;28;20037;-70
2020/12/20 02:03:52;;;;;;;19.77;12.55;;;5.30;94.60;;;;;;5045443;28;20017;-70
2020/12/20 02:06:17;;;;;;;21.90;13.35;;;5.30;94.60;;;;;;5028152;28;20025;-70
2020/12/20 02:08:43;;;;;;;19.88;12.25;;;5.20;94.60;;;;;;5025785;28;20030;-72
2020/12/20 02:11:15;;;;;;;19.20;12.23;;;5.30;94.60;;;;;;5045781;28;20393;-72
2020/12/20 02:13:42;;;;;;;23.90;14.27;;;5.30;94.70;;;;;;5041598;28;20029;-72
2020/12/20 02:16:08;;;;;;;20.52;12.43;;;5.20;94.60;;;;;;5026853;28;20069;-70
2020/12/20 02:18:33;;;;;;;22.15;14.52;;;5.20;94.60;;;;;;5027743;28;20054;-71
2020/12/20 02:20:59;;;;;;;18.90;12.13;;;5.20;94.70;;;;;;5016436;28;20030;-70
2020/12/20 02:23:24;;;;;;;22.63;14.02;;;5.20;94.60;;;;;;5015456;28;20028;-70
2020/12/20 02:25:51;;;;;;;21.90;13.07;;;5.10;94.70;;;;;;5029761;28;20029;-70
2020/12/20 02:28:20;;;;;;;20.05;12.77;;;5.20;94.70;;;;;;5050894;28;20048;-71
2020/12/20 02:30:47;;;;;;;22.05;14.52;;;5.10;94.70;;;;;;5029747;28;20396;-70
2020/12/20 02:33:13;;;;;;;20.75;13.65;;;5.10;94.70;;;;;;5030708;28;20033;-71
2020/12/20 02:35:43;;;;;;;19.98;12.90;;;5.10;94.70;;;;;;5033029;28;20385;-71
2020/12/20 02:38:08;;;;;;;21.25;12.32;;;5.10;94.80;;;;;;5050208;28;20489;-72
2020/12/20 02:40:35;;;;;;;22.45;13.50;;;5.20;94.80;;;;;;5027491;28;20033;-71
2020/12/20 02:43:00;;;;;;;19.27;12.18;;;5.20;94.80;;;;;;5032964;28;20041;-71
2020/12/20 02:45:26;;;;;;;17.75;11.95;;;5.20;94.80;;;;;;5028201;28;20040;-69
2020/12/20 02:47:51;;;;;;;21.45;14.38;;;5.20;94.80;;;;;;5034360;28;20025;-73
2020/12/20 02:50:17;;;;;;;22.02;13.55;;;5.20;94.80;;;;;;5031938;28;20030;-73
2020/12/20 02:52:42;;;;;;;23.63;14.20;;;5.20;94.80;;;;;;5033841;28;20408;-72
2020/12/20 02:55:08;;;;;;;22.63;13.25;;;5.20;94.80;;;;;;5037694;28;20034;-70
2020/12/20 02:57:33;;;;;;;21.17;13.40;;;5.20;94.80;;;;;;5043105;28;20455;-70
2020/12/20 02:59:58;;;;;;;21.02;13.07;;;5.20;94.80;;;;;;5033247;28;20027;-70
2020/12/20 03:02:24;;;;;;;21.58;13.77;;;5.20;94.80;;;;;;5032603;28;20482;-70
2020/12/20 03:04:49;;;;;;;22.15;12.90;;;5.20;94.80;;;;;;5032567;28;20037;-69
2020/12/20 03:07:15;;;;;;;19.30;12.98;;;5.20;94.80;;;;;;5028774;28;20109;-70
2020/12/20 03:09:40;;;;;;;22.40;13.15;;;5.30;94.80;;;;;;5046598;28;20043;-70
2020/12/20 03:12:06;;;;;;;21.40;13.02;;;5.20;94.80;;;;;;5032540;28;20061;-70
2020/12/20 03:14:31;;;;;;;21.73;13.60;;;5.20;94.80;;;;;;5032645;28;20129;-70
2020/12/20 03:16:57;;;;;;;22.27;13.30;;;5.20;94.80;;;;;;5031337;28;20025;-72
2020/12/20 03:19:22;;;;;;;20.23;13.75;;;5.30;94.80;;;;;;5033438;28;20010;-70
2020/12/20 03:21:48;;;;;;;19.13;13.20;;;5.20;94.80;;;;;;5045816;28;20083;-71
2020/12/20 03:24:13;;;;;;;23.80;13.35;;;5.20;94.80;;;;;;5022793;28;20017;-71
2020/12/20 03:26:39;;;;;;;22.20;13.70;;;5.30;94.80;;;;;;4998299;28;20053;-70
2020/12/20 03:29:04;;;;;;;22.48;13.75;;;5.30;94.90;;;;;;4996037;28;20018;-71
2020/12/20 03:31:30;;;;;;;21.85;13.77;;;5.30;94.70;;;;;;5038002;28;20112;-72
2020/12/20 03:33:56;;;;;;;21.33;13.38;;;5.20;94.70;;;;;;5053188;28;20025;-71
2020/12/20 03:36:21;;;;;;;20.90;13.40;;;5.30;94.80;;;;;;5023513;28;20118;-70
2020/12/20 03:38:46;;;;;;;21.33;13.40;;;5.30;94.70;;;;;;5025456;28;20021;-70
2020/12/20 03:41:12;;;;;;;20.50;12.88;;;5.30;94.70;;;;;;5027159;28;20113;-71
2020/12/20 03:43:37;;;;;;;23.55;13.68;;;5.30;94.80;;;;;;5013022;28;20022;-70
2020/12/20 03:46:03;;;;;;;20.98;12.85;;;5.30;94.70;;;;;;5014510;28;20064;-69
2020/12/20 03:48:28;;;;;;;21.65;14.13;;;5.30;94.70;;;;;;5012918;28;20025;-69
2020/12/20 03:50:54;;;;;;;22.08;13.93;;;5.30;94.70;;;;;;5027567;28;20033;-69
2020/12/20 03:53:19;;;;;;;23.50;14.10;;;5.30;94.70;;;;;;5042270;28;20147;-70
2020/12/20 03:55:45;;;;;;;22.23;14.13;;;5.30;94.70;;;;;;5021083;28;20032;-69
2020/12/20 03:58:10;;;;;;;21.33;14.02;;;5.30;94.70;;;;;;5032290;28;20025;-69
2020/12/20 04:00:36;;;;;;;20.48;13.23;;;5.40;94.80;;;;;;5031127;28;20108;-69
2020/12/20 04:03:01;;;;;;;22.92;14.23;;;5.40;94.80;;;;;;5037241;28;20021;-74
2020/12/20 04:05:27;;;;;;;23.25;14.75;;;5.40;94.80;;;;;;5018028;28;20099;-72
2020/12/20 04:07:53;;;;;;;21.20;13.70;;;5.50;94.80;;;;;;5033567;28;20296;-71
2020/12/20 04:10:18;;;;;;;21.67;13.65;;;5.50;94.70;;;;;;5014431;28;20030;-72
2020/12/20 04:12:43;;;;;;;20.58;13.13;;;5.50;94.70;;;;;;5036569;28;20087;-70
2020/12/20 04:15:09;;;;;;;22.50;14.63;;;5.50;94.70;;;;;;5017598;28;20124;-63
2020/12/20 04:17:34;;;;;;;20.60;14.15;;;5.60;94.70;;;;;;5017239;28;20475;-64
2020/12/20 04:20:00;;;;;;;23.10;14.48;;;5.50;94.60;;;;;;5013197;28;20018;-63
2020/12/20 04:22:25;;;;;;;23.75;14.57;;;5.60;94.60;;;;;;5022154;28;20030;-65
2020/12/20 04:24:51;;;;;;;23.30;14.52;;;5.60;94.50;;;;;;5029560;28;20021;-64
2020/12/20 04:27:16;;;;;;;21.98;13.40;;;5.60;94.60;;;;;;5020588;28;20076;-64
2020/12/20 04:29:42;;;;;;;22.10;14.43;;;5.60;94.50;;;;;;5012445;28;20490;-64
2020/12/20 04:32:08;;;;;;;24.98;14.40;;;5.60;94.50;;;;;;5012303;28;20044;-64
2020/12/20 04:34:34;;;;;;;22.05;14.80;;;5.60;94.70;;;;;;5012033;28;20101;-64
2020/12/20 04:36:59;;;;;;;22.58;14.50;;;5.60;94.50;;;;;;5025536;28;20455;-64
2020/12/20 04:39:25;;;;;;;21.70;13.40;;;5.60;94.40;;;;;;5012254;28;20072;-63
2020/12/20 04:41:50;;;;;;;20.25;13.73;;;5.60;94.40;;;;;;5025174;28;20025;-64
2020/12/20 04:44:16;;;;;;;21.77;13.70;;;5.60;94.40;;;;;;5030780;28;20022;-64
2020/12/20 04:46:41;;;;;;;23.17;15.00;;;5.60;94.40;;;;;;5026793;28;20030;-64
2020/12/20 04:49:08;;;;;;;22.27;14.50;;;5.60;94.30;;;;;;5012218;28;20053;-64
2020/12/20 04:51:36;;;;;;;23.40;15.05;;;5.60;94.30;;;;;;5023211;28;20485;-64
2020/12/20 04:54:03;;;;;;;23.08;14.15;;;5.60;94.30;;;;;;5011908;28;20060;-64
2020/12/20 04:56:35;;;;;;;21.80;14.30;;;5.50;94.30;;;;;;5025185;28;20046;-64
2020/12/20 04:59:01;;;;;;;22.88;14.20;;;5.50;94.30;;;;;;5031809;28;20060;-64
2020/12/20 05:01:28;;;;;;;21.08;14.43;;;5.50;94.30;;;;;;5027674;28;20037;-64
2020/12/20 05:03:54;;;;;;;27.13;15.60;;;5.50;94.30;;;;;;5031533;28;20029;-64
2020/12/20 05:06:19;;;;;;;25.38;15.18;;;5.50;94.20;;;;;;5038140;28;20037;-63
2020/12/20 05:08:45;;;;;;;22.88;14.82;;;5.40;94.20;;;;;;5011773;28;20018;-63
2020/12/20 05:11:34;;;;;;;20.65;14.52;;;5.40;94.30;;;;;;5019576;28;20026;-64
2020/12/20 05:14:00;;;;;;;23.25;14.95;;;5.40;94.30;;;;;;5031888;28;20036;-64
2020/12/20 05:16:33;;;;;;;21.65;13.55;;;5.30;94.30;;;;;;5030498;28;20776;-65
2020/12/20 05:18:59;;;;;;;23.08;15.43;;;5.30;94.30;;;;;;5051466;28;20048;-64
2020/12/20 05:21:29;;;;;;;24.52;15.73;;;5.30;94.30;;;;;;5028491;28;20072;-64
2020/12/20 05:23:55;;;;;;;23.30;14.45;;;5.30;94.30;;;;;;5036492;28;20037;-64
2020/12/20 05:26:38;;;;;;;22.27;14.57;;;5.20;94.30;;;;;;5036024;28;20041;-63
2020/12/20 05:29:09;;;;;;;22.00;14.95;;;5.20;94.30;;;;;;5051135;28;20040;-64
2020/12/20 05:31:35;;;;;;;22.95;14.98;;;5.20;94.40;;;;;;5029256;28;20040;-64
2020/12/20 05:34:01;;;;;;;23.20;14.32;;;5.20;94.40;;;;;;5031152;28;20025;-64
2020/12/20 05:36:27;;;;;;;23.60;14.43;;;5.10;94.40;;;;;;5029026;28;20025;-63
2020/12/20 05:38:53;;;;;;;23.83;14.52;;;5.10;94.40;;;;;;5031178;28;20541;-64
2020/12/20 05:41:31;;;;;;;26.08;15.25;;;5.10;94.40;;;;;;5027261;28;20104;-64
2020/12/20 05:44:12;;;;;;;25.42;15.65;;;5.10;94.40;;;;;;5030312;28;20030;-64
2020/12/20 05:46:41;;;;;;;22.60;14.55;;;5.00;94.40;;;;;;5029755;28;20033;-64
2020/12/20 05:49:21;;;;;;;22.45;15.00;;;5.00;94.40;;;;;;5018255;28;20041;-64
2020/12/20 05:52:10;;;;;;;26.13;16.38;;;5.00;94.50;;;;;;5030612;28;20029;-64
2020/12/20 05:54:41;;;;;;;23.02;15.15;;;5.00;94.50;;;;;;5029898;28;20075;-64
2020/12/20 05:57:18;;;;;;;22.17;14.70;;;5.00;94.50;;;;;;5030068;28;20095;-64
2020/12/20 05:59:46;;;;;;;24.67;15.68;;;5.00;94.60;;;;;;5014985;28;20037;-63
2020/12/20 06:02:13;;;;;;;29.45;15.95;;;4.90;94.60;;;;;;5036296;28;20068;-63
2020/12/20 06:04:39;;;;;;;24.58;15.25;;;4.90;94.60;;;;;;5020335;28;20355;-64
2020/12/20 06:07:09;;;;;;;24.85;15.60;;;4.90;94.60;;;;;;5024863;28;20386;-64
2020/12/20 06:09:55;;;;;;;27.20;16.42;;;4.90;94.70;;;;;;5030221;28;20032;-63
2020/12/20 06:12:22;;;;;;;;;;;4.90;94.60;;;;;;5030712;28;20049;-64
2020/12/20 06:14:48;;;;;;;26.38;14.52;;;4.90;94.50;;;;;;5033435;28;19921;-63
2020/12/20 06:17:19;;;;;;;21.83;14.48;;;4.90;94.60;;;;;;5018846;28;20121;-63
2020/12/20 06:19:49;;;;;;;22.83;14.90;;;4.90;94.60;;;;;;5016894;28;20371;-63
2020/12/20 06:22:35;;;;;;;27.05;16.17;;;4.80;94.60;;;;;;5041873;28;20044;-63
2020/12/20 06:25:03;;;;;;;25.15;15.48;;;4.80;94.60;;;;;;5035028;28;20040;-63
2020/12/20 06:27:30;;;;;;;24.35;14.88;;;4.80;94.60;;;;;;5020292;28;20107;-63
2020/12/20 06:29:58;;;;;;;24.48;15.75;;;4.80;94.70;;;;;;5014889;28;20033;-63
2020/12/20 06:32:46;;;;;;;24.38;15.73;;;4.80;94.70;;;;;;5013798;28;20463;-64
2020/12/20 06:35:25;;;;;;;24.27;15.80;;;4.80;94.70;;;;;;5016378;28;20079;-64
2020/12/20 06:37:52;;;;;;;25.98;15.80;;;4.70;94.70;;;;;;5017541;28;20038;-64
2020/12/20 06:40:29;;;;;;;23.98;15.45;;;4.70;94.70;;;;;;5014569;28;20030;-64
2020/12/20 06:42:57;;;;;;;29.00;16.75;;;4.80;94.80;;;;;;5049296;28;20025;-64
2020/12/20 06:45:23;;;;;;;27.52;16.13;;;4.70;94.70;;;;;;5027097;28;20037;-64
2020/12/20 06:47:59;;;;;;;25.75;15.48;;;4.70;94.70;;;;;;5032297;28;20028;-64
2020/12/20 06:50:43;;;;;;;27.80;16.45;;;4.70;94.80;;;;;;5031455;28;20033;-64
2020/12/20 06:53:09;;;;;;;26.50;16.42;;;4.70;94.80;;;;;;5051181;28;20122;-64
2020/12/20 06:55:35;;;;;;;28.10;17.10;;;4.70;94.80;;;;;;5024900;28;20038;-64
2020/12/20 06:58:08;;;;;;;28.88;16.88;;;4.60;95.10;;;;;;5033601;28;20030;-64
2020/12/20 07:00:41;;;;;;;25.08;15.75;;;4.60;94.90;;;;;;5031669;28;20528;-64
2020/12/20 07:03:23;;;;;;;29.58;16.95;;;4.60;94.90;;;;;;5040782;28;20021;-64
2020/12/20 07:05:50;;;;;;;28.73;16.73;;;4.60;95.00;;;;;;5020412;28;20486;-64
2020/12/20 07:08:26;;;;;;;29.17;16.73;;;4.60;95.00;;;;;;5021416;28;20042;-64
2020/12/20 07:10:59;;;;;;;27.73;16.92;;;4.70;95.00;;;;;;5017439;28;20485;-63
2020/12/20 07:13:41;;;;;;;29.23;17.38;;;4.70;95.10;;;;;;5027876;28;20057;-64
2020/12/20 07:16:14;;;;;;;25.90;16.30;;;4.70;95.10;;;;;;5016151;28;20024;-64
2020/12/20 07:18:57;;;;;;;25.08;16.00;;;4.60;95.00;;;;;;5020591;28;20112;-64
2020/12/20 07:21:23;;;;;;;28.50;16.85;;;4.60;95.10;;;;;;5018644;28;20497;-64
2020/12/20 07:23:54;;;;;;;27.77;16.38;;;4.70;95.10;;;;;;5032426;28;20033;-63
2020/12/20 07:26:23;;;;;;;30.90;17.73;;;4.70;95.10;;;;;;5031485;28;20141;-76
2020/12/20 07:28:49;;;;;;;27.50;16.20;;;4.70;95.10;;;;;;5014800;28;20037;-74
2020/12/20 07:31:16;;;;;;;27.98;17.15;;;4.70;95.10;;;;;;5032323;28;20504;-74
2020/12/20 07:33:43;;;;;;;28.30;16.38;;;4.70;95.10;;;;;;5019092;28;20125;-74
2020/12/20 07:36:08;;;;;;;26.05;18.02;;;4.70;95.10;;;;;;5014168;28;20505;-77
2020/12/20 07:38:34;;;;;;;31.77;19.60;;;4.70;95.10;;;;;;5039763;28;20038;-77
2020/12/20 07:41:04;;;;;;;34.00;16.42;;;4.70;95.10;;;;;;5014980;28;20037;-77
2020/12/20 07:43:30;;;;;;;29.48;17.40;;;4.70;95.10;;;;;;5032572;28;20102;-77
2020/12/20 07:45:57;;;;;;;26.95;17.05;;;4.70;95.10;;;;;;5014945;28;20064;-77
2020/12/20 07:48:24;;;;;;;26.98;16.13;;;4.70;95.10;;;;;;5030125;28;20026;-77
2020/12/20 07:50:50;;;;;;;28.70;16.80;;;4.70;95.10;;;;;;5023234;28;20402;-77
2020/12/20 07:53:15;;;;;;;28.58;18.30;;;4.70;95.10;;;;;;5024363;28;20057;-77
2020/12/20 07:55:47;;;;;;;30.35;17.00;;;4.70;95.10;;;;;;5058553;28;20033;-77
2020/12/20 07:58:13;;;;;;;27.67;17.58;;;4.80;95.20;;;;;;5048002;28;20025;-78
2020/12/20 08:00:44;;;;;;;28.50;17.75;;;4.80;95.10;;;;;;5036398;28;20025;-78
2020/12/20 08:03:10;;;;;;;27.45;16.90;;;4.70;95.10;;;;;;5025201;28;20024;-78
2020/12/20 08:05:35;;;;;;;27.65;16.90;;;4.80;95.20;;;;;;5017074;28;20112;-78
2020/12/20 08:08:00;;;;;;;27.25;16.25;;;4.70;95.20;;;;;;5046248;28;20032;-78
2020/12/20 08:10:26;;;;;;;27.85;17.30;;;4.80;95.20;;;;;;5051238;28;20533;-79
2020/12/20 08:12:52;;;;;;;30.20;16.52;;;4.80;95.20;;;;;;5032682;28;20029;-78
2020/12/20 08:15:18;;;;;;;28.92;16.88;;;4.80;95.10;;;;;;5033762;28;20394;-78
2020/12/20 08:17:43;;;;;;;29.80;17.25;;;4.80;95.10;;;;;;5036978;28;20032;-78
2020/12/20 08:20:09;;;;;;;29.25;17.67;;;4.90;95.10;;;;;;5036120;28;20029;-78
2020/12/20 08:22:36;;;;;;;29.05;17.20;;;4.90;95.10;;;;;;5030894;28;20032;-77
2020/12/20 08:25:11;;;;;;;27.75;16.92;;;4.90;95.10;;;;;;5033558;28;20029;-78
2020/12/20 08:27:40;;;;;;;30.73;17.88;;;4.90;95.10;;;;;;5032083;28;20097;-78
2020/12/20 08:30:07;;;;;;;26.02;15.73;;;4.90;95.10;;;;;;5049522;28;20394;-78
2020/12/20 08:32:35;;;;;;;27.80;16.58;;;4.90;95.10;;;;;;5030815;28;20041;-75
2020/12/20 08:35:11;;;;;;;27.02;17.10;;;4.90;95.10;;;;;;5032192;28;20037;-67
2020/12/20 08:37:36;;;;;;;30.17;17.00;;;4.90;95.00;;;;;;5027433;28;20383;-66
2020/12/20 08:40:16;;;;;;;28.05;16.30;;;4.90;95.00;;;;;;5012501;28;20030;-67
2020/12/20 08:42:43;;;;;;;30.20;17.60;;;4.90;95.00;;;;;;5027650;28;20560;-66
2020/12/20 08:45:20;;;;;;;29.17;16.25;;;4.90;95.00;;;;;;5049705;28;20028;-66
2020/12/20 08:47:47;;;;;;;26.67;15.85;;;4.90;95.10;;;;;;5030368;28;20514;-66
2020/12/20 08:50:13;;;;;;;27.05;16.20;;;4.90;95.00;;;;;;5031149;28;20048;-67
2020/12/20 08:52:39;;;;;;;25.60;15.95;;;4.90;95.00;;;;;;5039448;28;20044;-65
2020/12/20 08:55:07;;;;;;;26.08;15.73;;;4.90;95.00;;;;;;5041062;28;20410;-66
2020/12/20 08:57:35;;;;;;;25.27;15.63;;;4.90;95.30;;;;;;5012163;28;20508;-66
2020/12/20 09:00:10;;;;;;;25.63;15.23;;;4.90;95.00;;;;;;5012058;28;20518;-66
2020/12/20 09:02:36;;;;;;;;;;;4.90;95.00;;;;;;5026846;28;20490;-66
2020/12/20 09:05:05;;;;;;;25.73;14.93;;;5.00;95.00;;;;;;5016396;28;19909;-66
2020/12/20 09:07:40;;;;;;;24.83;14.93;;;4.90;95.00;;;;;;5037493;28;20036;-66
2020/12/20 09:10:11;;;;;;;22.38;13.82;;;4.90;95.00;;;;;;5037784;28;20025;-65
2020/12/20 09:12:45;;;;;;;24.88;14.70;;;5.00;95.10;;;;;;5019566;28;20132;-66
2020/12/20 09:15:14;;;;;;;23.67;14.40;;;5.00;95.00;;;;;;5016501;28;20034;-67
2020/12/20 09:17:42;;;;;;;25.05;14.95;;;5.10;95.00;;;;;;5032847;28;20139;-66
2020/12/20 09:20:11;;;;;;;26.20;16.23;;;5.10;95.00;;;;;;5037723;28;20033;-66
2020/12/20 09:22:39;;;;;;;25.15;14.65;;;5.10;95.00;;;;;;5023912;28;20041;-65
2020/12/20 09:25:04;;;;;;;24.88;15.50;;;5.20;95.00;;;;;;5026548;28;20022;-65
2020/12/20 09:27:30;;;;;;;26.25;14.07;;;5.20;94.90;;;;;;5028233;28;20120;-66
2020/12/20 09:29:55;;;;;;;21.50;14.27;;;5.20;94.90;;;;;;5020074;28;20029;-65
2020/12/20 09:32:21;;;;;;;24.75;14.85;;;5.30;94.90;;;;;;5025456;28;20064;-65
2020/12/20 09:34:46;;;;;;;24.33;14.88;;;5.40;94.90;;;;;;5024617;28;20026;-65
2020/12/20 09:37:12;;;;;;;24.98;14.23;;;5.40;94.80;;;;;;5038713;28;20036;-65
2020/12/20 09:40:04;;;;;;;23.00;14.13;;;5.40;94.70;;;;;;5030089;28;20363;-65
2020/12/20 09:42:37;;;;;;;21.77;13.90;;;5.40;94.70;;;;;;5026761;28;20071;-66
2020/12/20 09:45:04;;;;;;;22.67;14.00;;;5.50;94.70;;;;;;5030293;28;20029;-65
2020/12/20 09:47:29;;;;;;;24.00;13.70;;;5.50;94.60;;;;;;5034381;28;20757;-69
2020/12/20 09:49:54;;;;;;;21.58;12.82;;;5.50;94.60;;;;;;5021447;28;20056;-69
2020/12/20 09:52:20;;;;;;;20.92;12.93;;;5.50;94.60;;;;;;5034069;28;20025;-68
2020/12/20 09:54:45;;;;;;;22.33;13.35;;;5.60;94.50;;;;;;5033574;28;20456;-66
2020/12/20 09:57:11;;;;;;;22.60;13.23;;;5.60;94.50;;;;;;5028466;28;20071;-67
2020/12/20 09:59:36;;;;;;;21.65;12.85;;;5.60;94.50;;;;;;5030587;28;20030;-70
2020/12/20 10:02:02;;;;;;;21.35;12.80;;;5.70;94.50;;;;;;5017273;28;20108;-67
2020/12/20 10:04:27;;;;;;;21.17;12.70;;;5.70;94.40;;;;;;5036206;28;20029;-67
2020/12/20 10:06:53;;;;;;;22.13;13.40;;;5.80;94.30;;;;;;5032209;28;20489;-71
2020/12/20 10:09:18;;;;;;;19.50;12.15;;;5.80;94.30;;;;;;5019669;28;20021;-67
2020/12/20 10:11:44;;;;;;;19.67;12.52;;;5.80;94.20;;;;;;5027099;28;20152;-70
2020/12/20 10:14:09;;;;;;;19.88;12.52;;;5.90;94.20;;;;;;5031671;28;20018;-69
2020/12/20 10:16:36;;;;;;;18.63;12.02;;;5.90;94.10;;;;;;5023091;28;20080;-69
2020/12/20 10:19:01;;;;;;;20.00;12.15;;;6.00;94.20;;;;;;5045323;28;20025;-69
2020/12/20 10:21:27;;;;;;;19.73;12.88;;;6.00;94.10;;;;;;5026127;28;20481;-68
2020/12/20 10:23:52;;;;;;;21.25;12.98;;;6.10;94.10;;;;;;5035005;28;20049;-68
2020/12/20 10:26:18;;;;;;;20.83;12.32;;;6.20;94.00;;;;;;5024650;28;20033;-68
2020/12/20 10:28:43;;;;;;;18.73;12.18;;;6.20;94.00;;;;;;5027896;28;20488;-68
2020/12/20 10:31:09;;;;;;;19.23;12.07;;;6.30;94.00;;;;;;5026344;28;20041;-67
2020/12/20 10:33:34;;;;;;;20.02;12.57;;;6.40;93.90;;;;;;5043395;28;20029;-67
2020/12/20 10:36:01;;;;;;;18.35;12.07;;;6.50;93.80;;;;;;5034571;28;20029;-68
2020/12/20 10:38:26;;;;;;;18.52;11.82;;;6.60;93.70;;;;;;5032948;28;20032;-67
2020/12/20 10:40:52;;;;;;;18.23;11.60;;;6.60;93.60;;;;;;5027315;28;20104;-67
2020/12/20 10:43:17;;;;;;;18.00;11.55;;;6.70;93.50;;;;;;5032470;28;20044;-67
2020/12/20 10:45:43;;;;;;;19.25;12.60;;;6.70;93.50;;;;;;5013997;28;20028;-69
2020/12/20 10:48:08;;;;;;;18.48;11.68;;;6.80;93.40;;;;;;5031777;28;20616;-68
2020/12/20 10:50:34;;;;;;;15.85;11.02;;;6.80;93.30;;;;;;5021916;28;20030;-68
2020/12/20 10:52:59;;;;;;;18.13;11.35;;;6.90;93.30;;;;;;5023679;28;20037;-67
2020/12/20 10:55:25;;;;;;;18.02;12.13;;;7.00;93.20;;;;;;5031116;28;20155;-68
2020/12/20 10:57:50;;;;;;;19.63;12.07;;;7.00;93.20;;;;;;5025856;28;20043;-67
2020/12/20 11:00:16;;;;;;;20.45;11.63;;;7.10;93.10;;;;;;5018336;28;20492;-68
2020/12/20 11:02:41;;;;;;;17.00;10.80;;;7.10;92.90;;;;;;5027692;28;20025;-68
2020/12/20 11:05:07;;;;;;;17.30;11.30;;;7.10;92.90;;;;;;5031059;28;20046;-67
2020/12/20 11:07:33;;;;;;;17.08;11.07;;;7.10;92.80;;;;;;5032156;28;20030;-68
2020/12/20 11:09:58;;;;;;;17.48;11.88;;;7.20;92.70;;;;;;5007345;28;20065;-68
2020/12/20 11:12:24;;;;;;;19.50;10.80;;;7.20;92.60;;;;;;5017980;28;20037;-67
2020/12/20 11:14:49;;;;;;;18.63;12.05;;;7.20;92.50;;;;;;5028963;28;20018;-68
2020/12/20 11:17:15;;;;;;;15.50;10.10;;;7.20;92.40;;;;;;5016411;28;20030;-68
2020/12/20 11:19:40;;;;;;;16.35;10.60;;;7.20;92.40;;;;;;5032232;28;20033;-68
2020/12/20 11:22:06;;;;;;;15.10;9.52;;;7.20;92.30;;;;;;5032723;28;20116;-68
2020/12/20 11:24:31;;;;;;;17.20;9.93;;;7.30;92.40;;;;;;4999395;28;20022;-68
2020/12/20 11:26:57;;;;;;;17.52;11.00;;;7.30;92.40;;;;;;5036398;28;20033;-68
2020/12/20 11:29:22;;;;;;;16.33;10.63;;;7.30;92.40;;;;;;5025533;28;20024;-68
2020/12/20 11:31:48;;;;;;;16.50;10.38;;;7.30;92.30;;;;;;5046316;28;20060;-68
2020/12/20 11:34:14;;;;;;;16.02;10.18;;;7.30;92.20;;;;;;5025677;28;20456;-68
2020/12/20 11:36:41;;;;;;;17.73;10.77;;;7.30;92.10;;;;;;5041818;28;20501;-68
2020/12/20 11:39:10;;;;;;;15.90;9.77;;;7.40;91.90;;;;;;5022474;28;20105;-67
2020/12/20 11:41:36;;;;;;;15.90;10.90;;;7.40;91.90;;;;;;5029058;28;20037;-68
2020/12/20 11:44:03;;;;;;;16.02;10.38;;;7.40;91.90;;;;;;5029746;28;20566;-69
2020/12/20 11:46:28;;;;;;;16.15;10.20;;;7.40;91.90;;;;;;5013438;28;20397;-68
2020/12/20 11:48:55;;;;;;;16.40;10.18;;;7.40;91.80;;;;;;5029750;28;20026;-68
2020/12/20 11:51:21;;;;;;;15.80;9.85;;;7.40;91.80;;;;;;5013064;28;20037;-69
2020/12/20 11:53:46;;;;;;;16.42;10.35;;;7.50;91.80;;;;;;5025737;28;20056;-69
2020/12/20 11:56:14;;;;;;;18.15;11.40;;;7.50;91.80;;;;;;5025690;28;20025;-69
2020/12/20 11:58:39;;;;;;;15.98;9.98;;;7.50;91.70;;;;;;5029751;28;20496;-68
2020/12/20 12:01:05;;;;;;;16.27;10.57;;;7.50;91.70;;;;;;5015181;28;20105;-69
2020/12/20 12:03:31;;;;;;;16.48;10.70;;;7.50;91.70;;;;;;5012188;28;20036;-68
2020/12/20 12:05:58;;;;;;;16.55;10.07;;;7.50;91.70;;;;;;5032757;28;20021;-67
2020/12/20 12:08:24;;;;;;;15.15;10.10;;;7.50;91.70;;;;;;5034889;28;20028;-68
2020/12/20 12:10:50;;;;;;;13.60;9.60;;;7.60;91.60;;;;;;5052394;28;20028;-68
2020/12/20 12:13:16;;;;;;;17.00;10.52;;;7.60;91.60;;;;;;5039737;28;20100;-68
2020/12/20 12:15:42;;;;;;;13.82;9.07;;;7.60;91.70;;;;;;5032455;28;20026;-67
2020/12/20 12:18:08;;;;;;;13.77;8.80;;;7.70;91.70;;;;;;5023058;28;20029;-67
2020/12/20 12:20:34;;;;;;;15.18;9.77;;;7.70;91.70;;;;;;5031715;28;20101;-68
2020/12/20 12:22:59;;;;;;;15.63;9.52;;;7.70;91.60;;;;;;5037215;28;20029;-67
2020/12/20 12:25:25;;;;;;;14.32;9.48;;;7.80;91.60;;;;;;5030381;28;20084;-68
2020/12/20 12:27:51;;;;;;;14.80;9.32;;;7.80;91.50;;;;;;5035369;28;20128;-67
2020/12/20 12:30:16;;;;;;;15.02;9.18;;;7.90;91.50;;;;;;5031479;28;20565;-67
2020/12/20 12:32:42;;;;;;;16.08;9.38;;;7.90;91.50;;;;;;5036532;28;20052;-68
2020/12/20 12:35:08;;;;;;;12.15;8.23;;;8.00;91.40;;;;;;5046389;28;20559;-69
2020/12/20 12:37:34;;;;;;;14.63;9.50;;;8.00;91.40;;;;;;5017789;28;20116;-69
2020/12/20 12:40:00;;;;;;;15.15;9.60;;;8.10;91.40;;;;;;5032293;28;20420;-69